createdAt,value
2023-03-10T00:00:09.461Z,86.07
2023-03-10T00:02:12.730Z,85.95
2023-03-10T00:04:15.742Z,86.09
2023-03-10T00:06:20.812Z,86.11
2023-03-10T00:08:22.878Z,86.17
2023-03-10T00:10:24.936Z,85.76
2023-03-10T00:12:28.042Z,85.37
2023-03-10T00:14:30.261Z,85.57
2023-03-10T00:16:32.355Z,85.64
2023-03-10T00:18:34.588Z,85.73
2023-03-10T00:20:36.636Z,85.63
2023-03-10T00:22:39.979Z,85.29
2023-03-10T00:24:42.041Z,85.55
2023-03-10T00:26:45.750Z,84.99
2023-03-10T00:28:48.078Z,85.22
2023-03-10T00:30:56.402Z,85.49
2023-03-10T00:32:58.494Z,85.43
2023-03-10T00:35:00.489Z,85.48
2023-03-10T00:37:02.492Z,85.47
2023-03-10T00:39:05.463Z,85.12
2023-03-10T00:41:10.750Z,85.67
2023-03-10T00:43:12.896Z,85.17
2023-03-10T00:45:14.903Z,85.27
2023-03-10T00:47:16.944Z,85.33
2023-03-10T00:49:19.399Z,85.79
2023-03-10T00:51:22.438Z,85.94
2023-03-10T00:53:25.101Z,86.14
2023-03-10T00:55:27.254Z,86.37
2023-03-10T00:57:29.252Z,85.69
2023-03-10T00:59:47.913Z,86.25
2023-03-10T01:01:52.026Z,86.51
2023-03-10T01:03:56.489Z,85.97
2023-03-10T01:05:58.530Z,85.56
2023-03-10T01:08:00.671Z,85.22
2023-03-10T01:10:02.664Z,86.06
2023-03-10T01:12:04.907Z,86.29
2023-03-10T01:14:08.517Z,85.98
2023-03-10T01:16:10.602Z,86.20
2023-03-10T01:18:12.669Z,86.09
2023-03-10T01:20:16.890Z,86.27
2023-03-10T01:22:20.265Z,85.89
2023-03-10T01:24:22.364Z,85.67
2023-03-10T01:26:24.366Z,85.81
2023-03-10T01:28:26.672Z,86.19
2023-03-10T01:30:29.957Z,85.47
2023-03-10T01:32:32.125Z,85.81
2023-03-10T01:34:35.227Z,85.41
2023-03-10T01:36:37.234Z,85.79
2023-03-10T01:38:39.887Z,85.44
2023-03-10T01:40:48.504Z,85.13
2023-03-10T01:42:50.573Z,84.81
2023-03-10T01:44:58.774Z,84.74
2023-03-10T01:47:01.005Z,84.91
2023-03-10T01:49:09.221Z,84.78
2023-03-10T01:51:11.896Z,84.96
2023-03-10T01:53:17.156Z,84.67
2023-03-10T01:55:25.700Z,84.27
2023-03-10T01:57:31.703Z,84.66
2023-03-10T01:59:34.872Z,85.01
2023-03-10T02:01:37.677Z,84.58
2023-03-10T02:03:46.047Z,85.32
2023-03-10T02:05:53.883Z,85.30
2023-03-10T02:07:56.643Z,84.93
2023-03-10T02:09:59.552Z,85.02
2023-03-10T02:12:04.410Z,84.76
2023-03-10T02:14:06.851Z,85.03
2023-03-10T02:16:09.125Z,84.61
2023-03-10T02:18:14.776Z,83.81
2023-03-10T02:20:27.416Z,84.64
2023-03-10T02:22:29.939Z,84.26
2023-03-10T02:24:35.563Z,84.31
2023-03-10T02:26:42.109Z,84.06
2023-03-10T02:28:45.312Z,83.67
2023-03-10T02:30:51.234Z,83.70
2023-03-10T02:32:58.790Z,84.13
2023-03-10T02:35:00.877Z,84.23
2023-03-10T02:37:02.846Z,84.26
2023-03-10T02:39:05.021Z,84.10
2023-03-10T02:41:16.582Z,83.49
2023-03-10T02:43:25.366Z,83.87
2023-03-10T02:45:33.293Z,83.92
2023-03-10T02:47:35.374Z,83.03
2023-03-10T02:49:37.987Z,82.75
2023-03-10T02:51:43.808Z,83.63
2023-03-10T02:53:45.858Z,83.07
2023-03-10T02:55:48.095Z,82.70
2023-03-10T02:57:50.122Z,82.87
2023-03-10T02:59:52.331Z,82.77
2023-03-10T03:01:54.549Z,83.52
2023-03-10T03:03:57.479Z,82.95
2023-03-10T03:05:59.739Z,82.79
2023-03-10T03:08:01.724Z,82.40
2023-03-10T03:10:04.631Z,82.69
2023-03-10T03:12:07.261Z,82.74
2023-03-10T03:14:09.508Z,82.00
2023-03-10T03:16:12.171Z,82.09
2023-03-10T03:18:14.271Z,82.30
2023-03-10T03:20:17.420Z,82.35
2023-03-10T03:22:19.417Z,81.65
2023-03-10T03:24:21.461Z,81.73
2023-03-10T03:26:25.762Z,81.99
2023-03-10T03:28:27.796Z,81.97
2023-03-10T03:30:30.268Z,81.79
2023-03-10T03:32:32.304Z,82.03
2023-03-10T03:34:34.383Z,82.34
2023-03-10T03:36:37.625Z,81.25
2023-03-10T03:38:40.119Z,81.34
2023-03-10T03:40:42.203Z,81.25
2023-03-10T03:42:46.691Z,81.62
2023-03-10T03:44:48.711Z,81.73
2023-03-10T03:46:50.745Z,82.04
2023-03-10T03:48:52.738Z,81.46
2023-03-10T03:50:55.034Z,81.51
2023-03-10T03:52:57.611Z,81.07
2023-03-10T03:54:59.843Z,81.62
2023-03-10T03:57:02.109Z,81.30
2023-03-10T03:59:04.120Z,81.71
2023-03-10T04:01:06.189Z,81.14
2023-03-10T04:03:08.466Z,81.94
2023-03-10T04:05:11.078Z,81.63
2023-03-10T04:07:13.126Z,81.07
2023-03-10T04:09:15.144Z,80.96
2023-03-10T04:11:17.182Z,80.88
2023-03-10T04:13:19.166Z,80.84
2023-03-10T04:15:21.377Z,80.96
2023-03-10T04:17:23.334Z,80.07
2023-03-10T04:19:25.692Z,79.05
2023-03-10T04:21:27.858Z,78.38
2023-03-10T04:23:29.825Z,76.72
2023-03-10T04:25:31.823Z,75.55
2023-03-10T04:27:34.415Z,75.74
2023-03-10T04:29:37.611Z,75.93
2023-03-10T04:31:39.821Z,76.37
2023-03-10T04:33:42.389Z,76.07
2023-03-10T04:35:47.779Z,75.97
2023-03-10T04:37:49.812Z,74.89
2023-03-10T04:39:51.908Z,74.73
2023-03-10T04:41:54.056Z,75.47
2023-03-10T04:43:56.212Z,74.48
2023-03-10T04:45:58.743Z,74.22
2023-03-10T04:48:00.757Z,74.80
2023-03-10T04:50:03.188Z,75.17
2023-03-10T04:52:05.526Z,75.42
2023-03-10T04:54:07.821Z,73.91
2023-03-10T04:56:10.861Z,74.27
2023-03-10T04:58:12.838Z,74.43
2023-03-10T05:00:15.498Z,74.48
2023-03-10T05:02:17.917Z,74.41
2023-03-10T05:04:20.018Z,74.47
2023-03-10T05:06:22.484Z,74.93
2023-03-10T05:08:24.432Z,74.92
2023-03-10T05:10:26.540Z,74.95
2023-03-10T05:12:28.563Z,74.17
2023-03-10T05:14:30.603Z,74.34
2023-03-10T05:16:32.794Z,74.22
2023-03-10T05:18:34.807Z,74.67
2023-03-10T05:20:38.023Z,74.69
2023-03-10T05:22:40.804Z,74.11
2023-03-10T05:24:43.219Z,74.51
2023-03-10T05:26:45.253Z,74.36
2023-03-10T05:28:47.175Z,74.02
2023-03-10T05:30:49.201Z,74.36
2023-03-10T05:32:51.243Z,73.49
2023-03-10T05:34:53.301Z,73.32
2023-03-10T05:36:56.536Z,73.32
2023-03-10T05:38:58.544Z,74.04
2023-03-10T05:41:00.566Z,73.42
2023-03-10T05:43:02.870Z,73.15
2023-03-10T05:45:06.439Z,73.17
2023-03-10T05:47:08.538Z,72.97
2023-03-10T05:49:11.043Z,73.28
2023-03-10T05:51:13.763Z,72.99
2023-03-10T05:53:16.135Z,73.11
2023-03-10T05:55:20.033Z,72.50
2023-03-10T05:57:22.079Z,72.45
2023-03-10T05:59:24.076Z,72.12
2023-03-10T06:01:26.196Z,72.22
2023-03-10T06:03:30.315Z,72.21
2023-03-10T06:05:32.400Z,71.92
2023-03-10T06:07:35.562Z,71.60
2023-03-10T06:09:37.610Z,71.51
2023-03-10T06:11:39.566Z,71.87
2023-03-10T06:13:41.517Z,71.95
2023-03-10T06:15:43.448Z,72.02
2023-03-10T06:17:45.392Z,72.74
2023-03-10T06:19:47.386Z,71.64
2023-03-10T06:21:50.095Z,71.42
2023-03-10T06:23:52.599Z,71.42
2023-03-10T06:25:59.089Z,71.58
2023-03-10T06:28:01.105Z,70.77
2023-03-10T06:30:03.489Z,70.29
2023-03-10T06:32:06.302Z,70.43
2023-03-10T06:34:08.383Z,70.71
2023-03-10T06:36:12.073Z,70.96
2023-03-10T06:38:14.398Z,70.48
2023-03-10T06:40:16.616Z,70.55
2023-03-10T06:42:18.675Z,70.38
2023-03-10T06:44:20.811Z,71.01
2023-03-10T06:46:23.114Z,70.50
2023-03-10T06:48:25.287Z,70.04
2023-03-10T06:50:29.340Z,69.88
2023-03-10T06:52:34.914Z,70.60
2023-03-10T06:54:37.397Z,70.61
2023-03-10T06:56:39.404Z,70.36
2023-03-10T06:58:42.215Z,70.18
2023-03-10T07:00:44.302Z,69.76
2023-03-10T07:02:46.424Z,69.21
2023-03-10T07:04:48.663Z,69.39
2023-03-10T07:06:51.150Z,70.13
2023-03-10T07:08:54.494Z,70.02
2023-03-10T07:10:56.928Z,69.85
2023-03-10T07:12:59.351Z,69.46
2023-03-10T07:15:01.498Z,69.90
2023-03-10T07:17:04.373Z,70.41
2023-03-10T07:19:06.692Z,69.94
2023-03-10T07:21:10.527Z,71.12
2023-03-10T07:23:13.198Z,70.50
2023-03-10T07:25:15.490Z,70.59
2023-03-10T07:27:17.617Z,70.19
2023-03-10T07:29:20.046Z,70.08
2023-03-10T07:31:22.286Z,70.28
2023-03-10T07:33:24.356Z,70.76
2023-03-10T07:35:26.512Z,70.56
2023-03-10T07:37:28.578Z,69.86
2023-03-10T07:39:30.728Z,69.33
2023-03-10T07:41:32.794Z,69.29
2023-03-10T07:43:34.856Z,69.56
2023-03-10T07:45:38.051Z,68.71
2023-03-10T07:47:40.101Z,68.94
2023-03-10T07:49:47.088Z,68.79
2023-03-10T07:51:49.266Z,69.09
2023-03-10T07:53:51.412Z,68.45
2023-03-10T07:55:53.974Z,68.72
2023-03-10T07:57:57.749Z,68.69
2023-03-10T08:00:00.243Z,69.21
2023-03-10T08:02:02.280Z,69.14
2023-03-10T08:04:05.410Z,69.12
2023-03-10T08:06:08.029Z,68.77
2023-03-10T08:08:11.088Z,69.29
2023-03-10T08:10:13.773Z,69.14
2023-03-10T08:12:15.778Z,68.66
2023-03-10T08:14:20.963Z,68.91
2023-03-10T08:16:24.042Z,69.36
2023-03-10T08:18:26.565Z,69.30
2023-03-10T08:20:28.666Z,69.37
2023-03-10T08:22:30.795Z,69.23
2023-03-10T08:24:33.101Z,69.39
2023-03-10T08:26:35.576Z,69.26
2023-03-10T08:28:39.066Z,68.87
2023-03-10T08:30:57.058Z,69.65
2023-03-10T08:33:04.083Z,69.49
2023-03-10T08:35:07.246Z,69.67
2023-03-10T08:37:10.729Z,68.93
2023-03-10T08:39:13.530Z,68.94
2023-03-10T08:41:19.870Z,69.02
2023-03-10T08:43:21.958Z,68.93
2023-03-10T08:45:24.241Z,68.91
2023-03-10T08:47:29.285Z,69.23
2023-03-10T08:49:32.860Z,69.55
2023-03-10T08:51:35.696Z,68.57
2023-03-10T08:53:39.102Z,69.69
2023-03-10T08:55:41.886Z,69.15
2023-03-10T08:57:43.943Z,68.84
2023-03-10T08:59:46.005Z,68.84
2023-03-10T09:01:48.353Z,69.03
2023-03-10T09:03:50.548Z,68.17
2023-03-10T09:05:52.857Z,67.67
2023-03-10T09:07:56.175Z,68.25
2023-03-10T09:09:58.564Z,67.83
2023-03-10T09:12:00.709Z,68.20
2023-03-10T09:14:04.225Z,67.89
2023-03-10T09:16:08.220Z,68.23
2023-03-10T09:18:13.259Z,67.61
2023-03-10T09:20:15.940Z,67.88
2023-03-10T09:22:18.060Z,68.44
2023-03-10T09:24:20.282Z,68.41
2023-03-10T09:26:22.920Z,69.93
2023-03-10T09:28:25.396Z,70.09
2023-03-10T09:30:27.752Z,69.43
2023-03-10T09:32:30.050Z,70.64
2023-03-10T09:34:32.451Z,69.92
2023-03-10T09:36:35.529Z,68.91
2023-03-10T09:38:38.098Z,68.10
2023-03-10T09:40:45.352Z,68.03
2023-03-10T09:42:49.195Z,67.44
2023-03-10T09:44:58.286Z,67.01
2023-03-10T09:47:11.318Z,67.33
2023-03-10T09:49:17.105Z,66.96
2023-03-10T09:51:23.191Z,67.19
2023-03-10T09:53:29.829Z,66.29
2023-03-10T09:55:44.971Z,66.91
2023-03-10T09:57:54.333Z,67.13
2023-03-10T10:00:02.553Z,66.72
2023-03-10T10:02:19.226Z,66.65
2023-03-10T10:04:30.706Z,67.13
2023-03-10T10:06:35.777Z,65.80
2023-03-10T10:08:49.065Z,66.28
2023-03-10T10:10:56.736Z,66.30
2023-03-10T10:13:03.540Z,66.26
2023-03-10T10:15:17.256Z,65.68
2023-03-10T10:17:23.022Z,65.33
2023-03-10T10:19:27.831Z,65.48
2023-03-10T10:21:44.344Z,64.88
2023-03-10T10:23:50.988Z,66.00
2023-03-10T10:25:54.920Z,64.96
2023-03-10T10:28:01.536Z,64.89
2023-03-10T10:30:09.941Z,64.54
2023-03-10T10:32:15.135Z,64.64
2023-03-10T10:34:21.756Z,65.23
2023-03-10T10:36:27.100Z,64.43
2023-03-10T10:38:32.128Z,64.54
2023-03-10T10:40:46.857Z,64.67
2023-03-10T10:42:54.296Z,64.20
2023-03-10T10:45:02.454Z,64.46
2023-03-10T10:47:05.122Z,64.85
2023-03-10T10:49:18.116Z,64.09
2023-03-10T10:51:21.032Z,64.00
2023-03-10T10:53:24.782Z,64.07
2023-03-10T10:55:34.974Z,64.00
2023-03-10T10:57:38.965Z,62.85
2023-03-10T10:59:41.080Z,62.33
2023-03-10T11:01:47.681Z,61.72
2023-03-10T11:04:03.557Z,62.20
2023-03-10T11:06:11.845Z,61.78
2023-03-10T11:08:19.499Z,62.22
2023-03-10T11:10:28.198Z,62.63
2023-03-10T11:12:38.711Z,62.53
2023-03-10T11:14:45.681Z,62.39
2023-03-10T11:16:56.092Z,61.98
2023-03-10T11:19:08.691Z,60.81
2023-03-10T11:21:14.304Z,61.14
2023-03-10T11:23:20.984Z,61.31
2023-03-10T11:25:31.726Z,61.77
2023-03-10T11:27:37.391Z,61.04
2023-03-10T11:29:43.003Z,59.99
2023-03-10T11:31:51.519Z,60.51
2023-03-10T11:34:04.160Z,59.67
2023-03-10T11:36:20.857Z,60.02
2023-03-10T11:38:29.114Z,59.08
2023-03-10T11:40:41.400Z,60.17
2023-03-10T11:42:50.798Z,59.79
2023-03-10T11:45:02.872Z,60.13
2023-03-10T11:47:05.953Z,60.34
2023-03-10T11:49:12.315Z,60.36
2023-03-10T11:51:26.746Z,60.51
2023-03-10T11:53:32.908Z,60.55
2023-03-10T11:55:36.734Z,61.15
2023-03-10T11:57:44.500Z,62.57
2023-03-10T11:59:53.558Z,62.40
2023-03-10T12:01:59.275Z,62.81
2023-03-10T12:04:09.989Z,63.57
2023-03-10T12:06:19.838Z,63.13
2023-03-10T12:08:25.950Z,63.10
2023-03-10T12:10:29.605Z,62.81
2023-03-10T12:12:36.457Z,63.04
2023-03-10T12:14:39.722Z,63.97
2023-03-10T12:16:42.505Z,63.02
2023-03-10T12:18:45.048Z,62.06
2023-03-10T12:20:47.408Z,61.38
2023-03-10T12:22:51.790Z,61.69
2023-03-10T12:24:54.037Z,60.97
2023-03-10T12:27:02.085Z,59.99
2023-03-10T12:29:10.504Z,60.10
2023-03-10T12:31:35.609Z,60.26
2023-03-10T12:33:41.425Z,59.57
2023-03-10T12:35:48.469Z,59.91
2023-03-10T12:37:50.685Z,59.65
2023-03-10T12:39:52.923Z,58.67
2023-03-10T12:41:58.627Z,57.77
2023-03-10T12:44:04.350Z,57.26
2023-03-10T12:46:11.567Z,56.92
2023-03-10T12:48:19.998Z,57.12
2023-03-10T12:50:29.744Z,57.52
2023-03-10T12:52:36.637Z,57.22
2023-03-10T12:54:43.484Z,57.22
2023-03-10T12:56:59.718Z,56.25
2023-03-10T12:59:13.849Z,56.55
2023-03-10T13:01:22.842Z,56.83
2023-03-10T13:03:28.461Z,57.56
2023-03-10T13:05:34.227Z,56.34
2023-03-10T13:07:37.603Z,56.30
2023-03-10T13:09:43.860Z,56.98
2023-03-10T13:11:55.784Z,55.61
2023-03-10T13:14:03.601Z,55.77
2023-03-10T13:16:08.420Z,55.56
2023-03-10T13:18:16.847Z,55.56
2023-03-10T13:20:19.964Z,55.16
2023-03-10T13:22:22.105Z,54.88
2023-03-10T13:24:29.060Z,55.61
2023-03-10T13:26:31.808Z,53.97
2023-03-10T13:28:35.458Z,54.39
2023-03-10T13:30:37.832Z,54.73
2023-03-10T13:32:40.142Z,53.70
2023-03-10T13:34:42.488Z,53.22
2023-03-10T13:36:45.303Z,53.09
2023-03-10T13:38:47.760Z,53.54
2023-03-10T13:40:59.225Z,53.15
2023-03-10T13:43:01.720Z,52.80
2023-03-10T13:45:17.464Z,52.33
2023-03-10T13:47:23.559Z,51.90
2023-03-10T13:49:31.405Z,52.08
2023-03-10T13:51:36.215Z,52.15
2023-03-10T13:53:38.377Z,52.30
2023-03-10T13:55:42.655Z,52.78
2023-03-10T13:57:46.640Z,52.32
2023-03-10T13:59:49.546Z,52.61
2023-03-10T14:01:55.698Z,51.61
2023-03-10T14:04:06.140Z,51.34
2023-03-10T14:06:13.140Z,51.19
2023-03-10T14:08:19.578Z,51.65
2023-03-10T14:10:21.999Z,51.89
2023-03-10T14:12:37.529Z,50.63
2023-03-10T14:14:41.893Z,50.54
2023-03-10T14:16:45.722Z,50.36
2023-03-10T14:18:47.943Z,49.90
2023-03-10T14:20:50.142Z,50.23
2023-03-10T14:22:52.342Z,48.75
2023-03-10T14:24:57.723Z,47.72
2023-03-10T14:27:00.960Z,47.74
2023-03-10T14:29:09.922Z,47.40
2023-03-10T14:31:19.357Z,46.85
2023-03-10T14:33:21.834Z,47.55
2023-03-10T14:35:25.612Z,47.05
2023-03-10T14:37:27.850Z,46.76
2023-03-10T14:39:30.924Z,45.93
2023-03-10T14:41:33.422Z,46.26
2023-03-10T14:43:35.908Z,46.30
2023-03-10T14:45:41.158Z,46.52
2023-03-10T14:47:43.711Z,45.88
2023-03-10T14:49:46.642Z,45.03
2023-03-10T14:51:49.208Z,44.03
2023-03-10T14:53:51.493Z,45.37
2023-03-10T14:55:56.341Z,45.18
2023-03-10T14:58:02.445Z,44.15
2023-03-10T15:00:07.117Z,45.24
2023-03-10T15:02:19.479Z,45.64
2023-03-10T15:04:21.988Z,45.92
2023-03-10T15:06:24.203Z,46.36
2023-03-10T15:08:28.110Z,44.93
2023-03-10T15:10:36.239Z,46.30
2023-03-10T15:12:39.246Z,44.96
2023-03-10T15:14:44.824Z,45.29
2023-03-10T15:16:47.053Z,45.80
2023-03-10T15:18:49.463Z,46.10
2023-03-10T15:20:51.624Z,46.83
2023-03-10T15:22:53.847Z,48.01
2023-03-10T15:24:55.964Z,47.23
2023-03-10T15:26:58.280Z,46.83
2023-03-10T15:29:00.925Z,47.70
2023-03-10T15:31:03.323Z,47.56
2023-03-10T15:33:05.982Z,48.14
2023-03-10T15:35:09.600Z,48.06
2023-03-10T15:37:12.782Z,47.50
2023-03-10T15:39:29.004Z,47.38
2023-03-10T15:41:36.589Z,46.24
2023-03-10T15:43:38.808Z,46.11
2023-03-10T15:45:46.927Z,45.01
2023-03-10T15:47:49.445Z,45.11
2023-03-10T15:49:51.621Z,44.95
2023-03-10T15:51:53.903Z,44.38
2023-03-10T15:53:56.156Z,43.70
2023-03-10T15:55:58.225Z,44.00
2023-03-10T15:58:00.688Z,42.67
2023-03-10T16:00:03.693Z,42.39
2023-03-10T16:02:06.093Z,41.84
2023-03-10T16:04:08.434Z,42.02
2023-03-10T16:06:16.174Z,42.77
2023-03-10T16:08:19.494Z,43.06
2023-03-10T16:10:22.045Z,42.51
2023-03-10T16:12:24.278Z,41.61
2023-03-10T16:14:27.242Z,41.81
2023-03-10T16:16:29.637Z,42.35
2023-03-10T16:18:32.038Z,41.26
2023-03-10T16:20:34.292Z,42.86
2023-03-10T16:22:40.686Z,42.94
2023-03-10T16:24:43.590Z,42.12
2023-03-10T16:26:45.804Z,42.46
2023-03-10T16:28:53.223Z,42.70
2023-03-10T16:30:56.789Z,42.83
2023-03-10T16:33:01.055Z,42.26
2023-03-10T16:35:03.857Z,42.30
2023-03-10T16:37:08.297Z,42.44
2023-03-10T16:39:12.005Z,42.76
2023-03-10T16:41:14.508Z,42.64
2023-03-10T16:43:18.036Z,42.53
2023-03-10T16:45:20.451Z,43.03
2023-03-10T16:47:22.812Z,42.42
2023-03-10T16:49:25.372Z,43.07
2023-03-10T16:51:31.274Z,43.06
2023-03-10T16:53:33.650Z,43.09
2023-03-10T16:55:35.941Z,42.65
2023-03-10T16:57:38.323Z,42.61
2023-03-10T16:59:41.579Z,42.01
2023-03-10T17:01:44.782Z,42.16
2023-03-10T17:03:49.052Z,41.71
2023-03-10T17:05:54.181Z,41.34
2023-03-10T17:08:02.599Z,40.82
2023-03-10T17:10:05.336Z,41.33
2023-03-10T17:12:08.034Z,42.08
2023-03-10T17:14:14.385Z,42.16
2023-03-10T17:16:17.949Z,41.40
2023-03-10T17:18:20.189Z,42.49
2023-03-10T17:20:22.531Z,42.41
2023-03-10T17:22:25.120Z,43.41
2023-03-10T17:24:28.364Z,42.63
2023-03-10T17:26:30.900Z,42.34
2023-03-10T17:28:33.032Z,42.62
2023-03-10T17:30:35.669Z,42.90
2023-03-10T17:32:38.264Z,43.54
2023-03-10T17:34:41.582Z,43.09
2023-03-10T17:36:50.504Z,43.36
2023-03-10T17:38:54.454Z,44.13
2023-03-10T17:40:56.593Z,43.22
2023-03-10T17:43:08.396Z,43.01
2023-03-10T17:45:15.219Z,43.44
2023-03-10T17:47:17.375Z,42.79
2023-03-10T17:49:19.690Z,42.62
2023-03-10T17:51:26.093Z,43.30
2023-03-10T17:53:28.643Z,42.77
2023-03-10T17:55:30.701Z,43.15
2023-03-10T17:57:32.808Z,42.50
2023-03-10T17:59:39.207Z,42.77
2023-03-10T18:01:44.102Z,42.45
2023-03-10T18:03:48.351Z,41.98
2023-03-10T18:05:50.786Z,41.70
2023-03-10T18:07:53.902Z,42.10
2023-03-10T18:09:57.720Z,42.22
2023-03-10T18:11:59.795Z,42.13
2023-03-10T18:14:03.754Z,42.96
2023-03-10T18:16:08.137Z,42.64
2023-03-10T18:18:10.183Z,43.60
2023-03-10T18:20:14.985Z,43.36
2023-03-10T18:22:16.946Z,42.89
2023-03-10T18:24:19.051Z,43.71
2023-03-10T18:26:24.307Z,43.95
2023-03-10T18:28:27.126Z,44.18
2023-03-10T18:30:29.504Z,43.97
2023-03-10T18:32:31.655Z,45.07
2023-03-10T18:34:33.662Z,44.49
2023-03-10T18:36:36.038Z,44.33
2023-03-10T18:38:38.119Z,44.25
2023-03-10T18:40:41.028Z,44.67
2023-03-10T18:42:43.082Z,44.89
2023-03-10T18:44:46.722Z,44.46
2023-03-10T18:46:48.871Z,44.88
2023-03-10T18:48:55.705Z,45.26
2023-03-10T18:50:59.590Z,45.03
2023-03-10T18:53:01.826Z,45.63
2023-03-10T18:55:05.141Z,45.30
2023-03-10T18:57:07.162Z,45.53
2023-03-10T18:59:10.451Z,45.39
2023-03-10T19:01:14.568Z,45.53
2023-03-10T19:03:17.444Z,45.27
2023-03-10T19:05:19.716Z,44.57
2023-03-10T19:07:21.837Z,45.71
2023-03-10T19:09:24.599Z,45.32
2023-03-10T19:11:28.014Z,45.63
2023-03-10T19:13:30.585Z,45.61
2023-03-10T19:15:32.747Z,45.29
2023-03-10T19:17:36.361Z,45.07
2023-03-10T19:19:38.358Z,46.20
2023-03-10T19:21:40.402Z,46.03
2023-03-10T19:23:44.166Z,46.24
2023-03-10T19:25:46.259Z,46.84
2023-03-10T19:27:49.135Z,46.47
2023-03-10T19:29:52.733Z,46.89
2023-03-10T19:31:54.680Z,46.39
2023-03-10T19:33:56.746Z,46.43
2023-03-10T19:36:01.835Z,46.48
2023-03-10T19:38:05.744Z,47.45
2023-03-10T19:40:08.747Z,47.58
2023-03-10T19:42:11.769Z,47.42
2023-03-10T19:44:13.758Z,47.74
2023-03-10T19:46:16.649Z,46.99
2023-03-10T19:48:18.829Z,47.63
2023-03-10T19:50:21.616Z,47.72
2023-03-10T19:52:24.099Z,47.79
2023-03-10T19:54:26.076Z,48.16
2023-03-10T19:56:28.037Z,47.94
2023-03-10T19:58:31.472Z,47.98
2023-03-10T20:00:36.392Z,47.97
2023-03-10T20:02:42.206Z,47.58
2023-03-10T20:04:45.021Z,48.61
2023-03-10T20:06:46.997Z,48.39
2023-03-10T20:08:49.157Z,48.07
2023-03-10T20:10:51.178Z,48.38
2023-03-10T20:12:53.313Z,48.47
2023-03-10T20:14:58.794Z,48.92
2023-03-10T20:17:00.767Z,48.81
2023-03-10T20:19:02.965Z,48.87
2023-03-10T20:21:06.231Z,48.37
2023-03-10T20:23:08.745Z,48.76
2023-03-10T20:25:12.745Z,48.76
2023-03-10T20:27:14.720Z,48.19
2023-03-10T20:29:16.914Z,48.09
2023-03-10T20:31:21.495Z,48.37
2023-03-10T20:33:23.574Z,48.66
2023-03-10T20:35:26.770Z,48.67
2023-03-10T20:37:28.715Z,49.98
2023-03-10T20:39:30.709Z,49.39
2023-03-10T20:41:56.197Z,49.47
2023-03-10T20:43:58.182Z,49.56
2023-03-10T20:46:00.210Z,49.64
2023-03-10T20:48:02.288Z,50.05
2023-03-10T20:50:06.485Z,49.63
2023-03-10T20:52:08.413Z,49.65
2023-03-10T20:54:10.393Z,49.34
2023-03-10T20:56:14.409Z,49.60
2023-03-10T20:58:16.517Z,49.57
2023-03-10T21:00:21.364Z,49.95
2023-03-10T21:02:23.243Z,49.74
2023-03-10T21:04:27.564Z,49.41
2023-03-10T21:06:30.111Z,49.05
2023-03-10T21:08:32.066Z,49.41
2023-03-10T21:10:34.592Z,49.40
2023-03-10T21:12:36.565Z,49.20
2023-03-10T21:14:38.541Z,48.67
2023-03-10T21:16:42.160Z,48.51
2023-03-10T21:18:44.341Z,48.78
2023-03-10T21:20:46.424Z,48.67
2023-03-10T21:22:48.454Z,48.85
2023-03-10T21:24:50.935Z,48.88
2023-03-10T21:26:52.797Z,49.09
2023-03-10T21:28:54.711Z,48.87
2023-03-10T21:30:56.567Z,48.60
2023-03-10T21:32:58.798Z,48.73
2023-03-10T21:35:00.810Z,49.15
2023-03-10T21:37:02.845Z,49.84
2023-03-10T21:39:05.646Z,49.18
2023-03-10T21:41:09.057Z,48.71
2023-03-10T21:43:11.781Z,48.59
2023-03-10T21:45:16.652Z,48.00
2023-03-10T21:47:18.584Z,48.52
2023-03-10T21:49:20.526Z,48.84
2023-03-10T21:51:24.431Z,49.07
2023-03-10T21:53:27.091Z,48.94
2023-03-10T21:55:29.568Z,49.68
2023-03-10T21:57:31.634Z,49.48
2023-03-10T21:59:33.578Z,49.45
2023-03-10T22:01:35.744Z,49.11
2023-03-10T22:03:37.752Z,48.64
2023-03-10T22:05:39.698Z,49.44
2023-03-10T22:07:42.264Z,49.36
2023-03-10T22:09:44.149Z,48.87
2023-03-10T22:11:46.372Z,49.54
2023-03-10T22:13:48.690Z,49.96
2023-03-10T22:15:50.674Z,49.60
2023-03-10T22:17:54.511Z,49.04
2023-03-10T22:19:56.544Z,49.62
2023-03-10T22:21:58.654Z,48.78
2023-03-10T22:24:00.579Z,48.65
2023-03-10T22:26:02.512Z,48.12
2023-03-10T22:28:05.032Z,48.36
2023-03-10T22:30:08.802Z,48.72
2023-03-10T22:32:11.220Z,47.47
2023-03-10T22:34:13.261Z,48.14
2023-03-10T22:36:15.259Z,47.66
2023-03-10T22:38:17.933Z,48.46
2023-03-10T22:40:23.072Z,48.64
2023-03-10T22:42:25.169Z,47.32
2023-03-10T22:44:27.072Z,47.81
2023-03-10T22:46:29.140Z,47.80
2023-03-10T22:48:31.100Z,47.51
2023-03-10T22:50:36.659Z,47.02
2023-03-10T22:52:38.643Z,47.70
2023-03-10T22:54:40.644Z,47.77
2023-03-10T22:56:42.488Z,47.23
2023-03-10T22:58:44.541Z,48.22
2023-03-10T23:00:46.565Z,47.76
2023-03-10T23:02:50.149Z,47.66
2023-03-10T23:04:52.150Z,47.61
2023-03-10T23:06:54.171Z,48.57
2023-03-10T23:08:57.146Z,47.24
2023-03-10T23:10:59.131Z,47.71
2023-03-10T23:13:03.275Z,48.53
2023-03-10T23:15:12.182Z,48.22
2023-03-10T23:17:17.220Z,46.55
2023-03-10T23:19:19.795Z,46.65
2023-03-10T23:21:21.838Z,45.91
2023-03-10T23:23:24.007Z,46.17
2023-03-10T23:25:29.688Z,46.91
2023-03-10T23:27:31.655Z,46.32
2023-03-10T23:29:33.672Z,47.02
2023-03-10T23:31:35.757Z,47.01
2023-03-10T23:33:37.722Z,46.65
2023-03-10T23:35:39.770Z,46.55
2023-03-10T23:37:41.865Z,45.81
2023-03-10T23:39:43.710Z,46.71
2023-03-10T23:41:45.671Z,46.73
2023-03-10T23:43:47.812Z,46.55
2023-03-10T23:45:50.079Z,46.05
2023-03-10T23:47:53.293Z,46.32
2023-03-10T23:49:56.252Z,46.54
2023-03-10T23:51:58.183Z,46.27
2023-03-10T23:54:00.313Z,46.13
2023-03-10T23:56:02.171Z,46.47
2023-03-10T23:58:05.148Z,46.82
